Portada
METAR-TAF:

METAR-TAF

Aeroports :

Maurici, Maurici

latitud: 20-26S, longitud: 057-40E, altitud: 55 m

Observació

L'informe es va fer fa 12 minuts, a les 16:00 UTC
Vent 10 kt del Sud-Oest
Temperatura 23°C
Humitat 61%
Pressió 1020 hPa
Visibilitat 10 km o més
Escasses núvols a una alçada de 1900 ft
Cel ennuvolat a una alçada de 25000 ft

METAR: FIMP 231600Z 22010KT 9999 FEW019 BKN250 23/15 Q1020

Hora: 20:12 (16:12 UTC)

Pronòstic

L'informe es va fer fa 4 hores i 47 minuts, a les 11:25 UTC
Pronòstic vàlid del 23 a les 12 UTC al 24 a les 18 UTC
Vent 15 kt del Sud/Sud-Oest amb ràfegues de 25 kt
Visibilitat 10 km o més
Núvols disperses a una alçada de 1900 ft
Evolucionant progressivament
l' 24 a les 02 UTC al 24 a les 04 UTC
Vent 15 kt del Sud amb ràfegues de 25 kt

TAF: FIMP 231125Z 2312/2418 21015G25KT 9999 SCT019 BECMG 2402/2404 17015G25KT

Observacions i pronòstics meteorològics de més de 4000 aeroports (METAR i TAF).

Les estacions disponibles són els punts grocs i vermells al mapa.

Posi el ratolí al punt desitjat per veure el nom de l'estació.

Feu clic per veure les observacions i els pronòstics meteorològics.

Per canviar el mapa: feu clic els botons verds amb una creu de color negre per apropar; al botó verd amb un guió per allunyar la imatge; o en les fletxes verdes per a mapes adjacents.


METAR-TAF: